createdAt,value
2022-11-27T00:01:25.287Z,14.82
2022-11-27T00:03:53.824Z,16.80
2022-11-27T00:06:24.508Z,21.95
2022-11-27T00:08:51.386Z,19.73
2022-11-27T00:11:21.326Z,17.63
2022-11-27T00:13:49.108Z,18.52
2022-11-27T00:16:17.360Z,16.83
2022-11-27T00:18:44.605Z,17.17
2022-11-27T00:21:17.492Z,20.13
2022-11-27T00:23:44.479Z,19.63
2022-11-27T00:26:11.933Z,24.90
2022-11-27T00:28:38.800Z,19.60
2022-11-27T00:31:08.783Z,19.63
2022-11-27T00:33:35.535Z,22.80
2022-11-27T00:36:07.034Z,19.63
2022-11-27T00:38:38.484Z,22.48
2022-11-27T00:41:11.122Z,18.55
2022-11-27T00:43:44.230Z,16.08
2022-11-27T00:46:17.178Z,13.95
2022-11-27T00:48:44.766Z,18.47
2022-11-27T00:51:14.678Z,14.73
2022-11-27T00:53:41.938Z,13.80
2022-11-27T00:56:10.155Z,17.75
2022-11-27T00:58:36.790Z,12.20
2022-11-27T01:01:06.533Z,22.30
2022-11-27T01:03:34.285Z,18.67
2022-11-27T01:06:06.103Z,20.02
2022-11-27T01:08:33.892Z,20.10
2022-11-27T01:11:01.155Z,13.18
2022-11-27T01:13:31.066Z,21.47
2022-11-27T01:16:19.992Z,30.45
2022-11-27T01:18:48.691Z,15.98
2022-11-27T01:21:19.008Z,23.48
2022-11-27T01:23:45.975Z,24.38
2022-11-27T01:26:13.374Z,20.00
2022-11-27T01:28:40.508Z,17.45
2022-11-27T01:31:12.404Z,22.13
2022-11-27T01:33:39.365Z,20.63
2022-11-27T01:36:08.492Z,26.65
2022-11-27T01:38:35.767Z,27.30
2022-11-27T01:41:08.921Z,27.13
2022-11-27T01:43:54.228Z,27.60
2022-11-27T01:46:40.103Z,20.27
2022-11-27T01:49:09.600Z,28.58
2022-11-27T01:51:44.435Z,18.83
2022-11-27T01:54:11.771Z,25.95
2022-11-27T01:56:41.269Z,20.95
2022-11-27T01:59:08.221Z,25.40
2022-11-27T02:01:35.453Z,25.70
2022-11-27T02:04:02.361Z,30.17
2022-11-27T02:06:29.882Z,28.80
2022-11-27T02:08:56.864Z,23.35
2022-11-27T02:11:45.761Z,24.55
2022-11-27T02:14:23.417Z,20.85
2022-11-27T02:17:14.748Z,22.47
2022-11-27T02:20:00.236Z,17.30
2022-11-27T02:22:55.343Z,17.55
2022-11-27T02:25:43.592Z,20.08
2022-11-27T02:28:17.895Z,16.90
2022-11-27T02:30:54.580Z,19.73
2022-11-27T02:33:22.097Z,23.35
2022-11-27T02:35:58.782Z,25.88
2022-11-27T02:38:31.371Z,17.67
2022-11-27T02:41:08.837Z,30.75
2022-11-27T02:43:39.249Z,29.73
2022-11-27T02:46:08.224Z,22.65
2022-11-27T02:48:47.381Z,25.70
2022-11-27T02:51:16.794Z,29.55
2022-11-27T02:53:50.252Z,33.22
2022-11-27T02:56:20.285Z,27.53
2022-11-27T02:58:49.386Z,26.88
2022-11-27T03:01:18.846Z,26.60
2022-11-27T03:03:53.176Z,23.33
2022-11-27T03:06:28.492Z,34.72
2022-11-27T03:09:27.737Z,25.43
2022-11-27T03:11:55.026Z,28.23
2022-11-27T03:14:24.766Z,20.75
2022-11-27T03:17:09.509Z,22.75
2022-11-27T03:19:45.353Z,32.13
2022-11-27T03:22:12.388Z,28.97
2022-11-27T03:24:39.773Z,32.60
2022-11-27T03:27:07.179Z,32.15
2022-11-27T03:29:48.580Z,30.95
2022-11-27T03:32:15.449Z,41.85
2022-11-27T03:34:43.188Z,38.50
2022-11-27T03:37:10.284Z,29.10
2022-11-27T03:39:37.317Z,31.02
2022-11-27T03:42:32.030Z,25.42
2022-11-27T03:45:51.822Z,32.25
2022-11-27T03:48:27.818Z,32.63
2022-11-27T03:51:25.924Z,31.63
2022-11-27T03:54:26.539Z,34.35
2022-11-27T03:57:01.985Z,37.08
2022-11-27T03:59:31.728Z,32.97
2022-11-27T04:01:58.724Z,32.60
2022-11-27T04:04:25.869Z,36.38
2022-11-27T04:06:52.851Z,33.67
2022-11-27T04:09:19.900Z,30.77
2022-11-27T04:11:46.867Z,31.92
2022-11-27T04:14:13.569Z,30.97
2022-11-27T04:16:40.554Z,32.45
2022-11-27T04:19:08.167Z,33.67
2022-11-27T04:21:35.082Z,32.88
2022-11-27T04:24:01.675Z,34.30
2022-11-27T04:26:28.634Z,28.40
2022-11-27T04:28:55.370Z,31.55
2022-11-27T04:31:22.357Z,33.17
2022-11-27T04:33:49.140Z,32.50
2022-11-27T04:36:16.003Z,34.22
2022-11-27T04:38:42.672Z,22.30
2022-11-27T04:41:09.632Z,19.27
2022-11-27T04:43:36.285Z,19.17
2022-11-27T04:46:03.235Z,19.83
2022-11-27T04:48:30.069Z,18.40
2022-11-27T04:50:57.008Z,29.93
2022-11-27T04:53:23.680Z,27.00
2022-11-27T04:55:53.789Z,32.55
2022-11-27T04:58:20.553Z,20.40
2022-11-27T05:00:47.735Z,30.08
2022-11-27T05:03:14.717Z,28.27
2022-11-27T05:05:41.763Z,30.25
2022-11-27T05:08:08.370Z,22.35
2022-11-27T05:10:35.335Z,24.98
2022-11-27T05:13:02.047Z,22.60
2022-11-27T05:15:28.929Z,31.07
2022-11-27T05:17:55.597Z,23.70
2022-11-27T05:20:22.547Z,20.85
2022-11-27T05:22:49.812Z,18.65
2022-11-27T05:25:16.764Z,21.60
2022-11-27T05:27:43.432Z,18.57
2022-11-27T05:30:10.683Z,26.27
2022-11-27T05:32:37.982Z,19.83
2022-11-27T05:35:05.204Z,19.70
2022-11-27T05:37:31.895Z,12.55
2022-11-27T05:39:59.959Z,8.47
2022-11-27T05:42:26.589Z,9.70
2022-11-27T05:44:58.108Z,7.90
2022-11-27T05:47:25.462Z,7.90
2022-11-27T05:49:52.517Z,7.30
2022-11-27T05:52:19.228Z,22.90
2022-11-27T05:54:46.137Z,14.52
2022-11-27T05:57:12.777Z,23.05
2022-11-27T05:59:39.675Z,36.17
2022-11-27T06:02:06.447Z,28.92
2022-11-27T06:04:34.697Z,32.23
2022-11-27T06:07:01.494Z,30.23
2022-11-27T06:09:28.477Z,33.53
2022-11-27T06:11:55.156Z,29.90
2022-11-27T06:14:22.190Z,28.77
2022-11-27T06:16:48.902Z,22.87
2022-11-27T06:19:15.966Z,23.95
2022-11-27T06:21:42.622Z,18.75
2022-11-27T06:24:10.700Z,23.10
2022-11-27T06:26:37.674Z,18.88
2022-11-27T06:29:05.129Z,15.47
2022-11-27T06:31:33.225Z,17.13
2022-11-27T06:34:00.883Z,19.95
2022-11-27T06:36:34.288Z,18.40
2022-11-27T06:39:02.602Z,23.77
2022-11-27T06:41:29.370Z,19.83
2022-11-27T06:43:58.628Z,25.70
2022-11-27T06:46:26.655Z,20.85
2022-11-27T06:48:54.958Z,17.73
2022-11-27T06:51:24.216Z,20.08
2022-11-27T06:53:51.750Z,17.87
2022-11-27T06:56:21.644Z,16.10
2022-11-27T06:58:52.366Z,17.98
2022-11-27T07:01:19.497Z,19.15
2022-11-27T07:03:46.568Z,24.10
2022-11-27T07:06:15.308Z,21.20
2022-11-27T07:08:42.556Z,26.00
2022-11-27T07:11:14.163Z,20.15
2022-11-27T07:13:41.506Z,17.42
2022-11-27T07:16:10.555Z,19.45
2022-11-27T07:18:40.610Z,25.33
2022-11-27T07:21:07.629Z,28.27
2022-11-27T07:23:35.364Z,26.42
2022-11-27T07:26:07.063Z,31.95
2022-11-27T07:28:34.861Z,30.73
2022-11-27T07:31:01.746Z,20.17
2022-11-27T07:33:28.801Z,25.15
2022-11-27T07:36:02.481Z,21.77
2022-11-27T07:38:31.478Z,23.20
2022-11-27T07:41:12.018Z,32.28
2022-11-27T07:43:42.646Z,29.50
2022-11-27T07:46:21.903Z,30.85
2022-11-27T07:48:49.415Z,30.95
2022-11-27T07:51:18.642Z,35.63
2022-11-27T07:53:45.921Z,25.08
2022-11-27T07:56:15.269Z,29.97
2022-11-27T07:58:42.366Z,28.67
2022-11-27T08:01:11.339Z,16.58
2022-11-27T08:03:38.725Z,17.58
2022-11-27T08:06:13.426Z,18.92
2022-11-27T08:08:40.332Z,16.03
2022-11-27T08:11:06.953Z,19.50
2022-11-27T08:13:33.895Z,24.35
2022-11-27T08:16:00.557Z,18.48
2022-11-27T08:18:27.526Z,37.13
2022-11-27T08:20:54.193Z,19.67
2022-11-27T08:23:21.070Z,16.77
2022-11-27T08:25:47.741Z,20.83
2022-11-27T08:28:14.795Z,28.17
2022-11-27T08:30:41.423Z,19.25
2022-11-27T08:33:10.388Z,18.37
2022-11-27T08:35:37.026Z,21.20
2022-11-27T08:38:04.117Z,19.48
2022-11-27T08:40:30.736Z,41.80
2022-11-27T08:42:58.602Z,32.25
2022-11-27T08:45:25.252Z,30.03
2022-11-27T08:47:52.132Z,21.92
2022-11-27T08:50:18.951Z,18.20
2022-11-27T08:52:45.802Z,21.20
2022-11-27T08:55:12.442Z,19.23
2022-11-27T08:57:39.424Z,20.10
2022-11-27T09:00:06.896Z,20.40
2022-11-27T09:02:34.457Z,28.58
2022-11-27T09:05:02.745Z,31.70
2022-11-27T09:07:29.682Z,30.70
2022-11-27T09:09:56.373Z,31.33
2022-11-27T09:12:23.307Z,25.73
2022-11-27T09:14:49.952Z,33.65
2022-11-27T09:17:17.213Z,18.90
2022-11-27T09:19:43.905Z,23.75
2022-11-27T09:22:10.770Z,23.93
2022-11-27T09:24:37.441Z,26.05
2022-11-27T09:27:04.390Z,28.02
2022-11-27T09:29:31.169Z,30.70
2022-11-27T09:31:58.070Z,27.35
2022-11-27T09:34:24.797Z,35.90
2022-11-27T09:36:51.829Z,35.30
2022-11-27T09:39:19.634Z,46.47
2022-11-27T09:41:52.592Z,46.85
2022-11-27T09:44:31.383Z,48.38
2022-11-27T09:47:10.243Z,37.63
2022-11-27T09:49:44.095Z,45.88
2022-11-27T09:52:24.284Z,43.33
2022-11-27T09:54:57.577Z,30.48
2022-11-27T09:57:31.319Z,31.55
2022-11-27T10:00:03.884Z,42.43
2022-11-27T10:02:33.531Z,36.42
2022-11-27T10:05:13.844Z,33.40
2022-11-27T10:08:06.586Z,39.42
2022-11-27T10:10:46.818Z,29.08
2022-11-27T10:13:21.460Z,28.87
2022-11-27T10:15:55.697Z,31.58
2022-11-27T10:18:47.940Z,27.48
2022-11-27T10:21:23.645Z,27.92
2022-11-27T10:24:13.332Z,25.40
2022-11-27T10:26:48.102Z,24.60
2022-11-27T10:29:33.703Z,37.58
2022-11-27T10:32:32.940Z,32.25
2022-11-27T10:35:03.797Z,29.70
2022-11-27T10:37:43.217Z,23.98
2022-11-27T10:40:10.073Z,24.27
2022-11-27T10:42:44.623Z,24.23
2022-11-27T10:45:21.629Z,22.55
2022-11-27T10:47:48.519Z,19.85
2022-11-27T10:50:19.790Z,19.95
2022-11-27T10:52:53.788Z,22.03
2022-11-27T10:55:58.076Z,24.13
2022-11-27T10:58:34.350Z,27.95
2022-11-27T11:01:02.470Z,25.73
2022-11-27T11:03:29.182Z,27.40
2022-11-27T11:08:48.222Z,23.75
2022-11-27T11:11:26.266Z,24.48
2022-11-27T11:13:53.386Z,26.17
2022-11-27T11:16:33.375Z,34.05
2022-11-27T11:19:02.674Z,29.00
2022-11-27T11:21:40.806Z,31.92
2022-11-27T11:24:30.004Z,32.08
2022-11-27T11:27:04.033Z,27.35
2022-11-27T11:29:47.377Z,27.83
2022-11-27T11:32:21.372Z,28.43
2022-11-27T11:34:56.204Z,27.02
2022-11-27T11:37:30.101Z,23.73
2022-11-27T11:40:16.520Z,27.92
2022-11-27T11:43:18.131Z,29.00
2022-11-27T11:45:46.883Z,28.00
2022-11-27T11:48:27.678Z,26.70
2022-11-27T11:51:12.729Z,29.70
2022-11-27T11:53:42.661Z,26.02
2022-11-27T11:56:33.027Z,24.52
2022-11-27T11:59:19.080Z,24.70
2022-11-27T12:02:07.017Z,30.23
2022-11-27T12:05:11.783Z,46.65
2022-11-27T12:07:56.924Z,42.28
2022-11-27T12:10:30.842Z,37.97
2022-11-27T12:13:03.031Z,31.07
2022-11-27T12:15:32.870Z,26.30
2022-11-27T12:18:26.776Z,22.30
2022-11-27T12:21:12.004Z,25.65
2022-11-27T12:23:49.371Z,24.63
2022-11-27T12:26:46.721Z,24.50
2022-11-27T12:29:47.827Z,23.80
2022-11-27T12:32:28.615Z,34.65
2022-11-27T12:35:01.412Z,34.30
2022-11-27T12:37:50.313Z,27.33
2022-11-27T12:40:43.865Z,27.37
2022-11-27T12:43:25.565Z,29.05
2022-11-27T12:45:55.248Z,22.58
2022-11-27T12:48:35.056Z,24.38
2022-11-27T12:51:07.167Z,28.73
2022-11-27T12:53:45.817Z,23.23
2022-11-27T12:56:43.604Z,28.33
2022-11-27T12:59:25.373Z,27.80
2022-11-27T13:01:54.825Z,27.15
2022-11-27T13:04:37.022Z,31.05
2022-11-27T13:07:11.749Z,27.80
2022-11-27T13:09:52.465Z,29.80
2022-11-27T13:12:32.621Z,29.38
2022-11-27T13:15:08.254Z,25.30
2022-11-27T13:17:42.493Z,25.95
2022-11-27T13:20:20.326Z,34.10
2022-11-27T13:22:48.289Z,39.40
2022-11-27T13:25:15.413Z,34.67
2022-11-27T13:27:46.651Z,37.70
2022-11-27T13:30:25.676Z,37.83
2022-11-27T13:32:56.273Z,44.00
2022-11-27T13:35:29.040Z,34.53
2022-11-27T13:38:21.097Z,34.95
2022-11-27T13:40:52.517Z,32.60
2022-11-27T13:43:29.031Z,28.65
2022-11-27T13:46:08.079Z,25.30
2022-11-27T13:48:38.141Z,25.90
2022-11-27T13:51:06.826Z,22.75
2022-11-27T13:53:38.022Z,24.17
2022-11-27T13:56:07.507Z,24.27
2022-11-27T13:58:40.043Z,27.50
2022-11-27T14:01:17.168Z,30.20
2022-11-27T14:03:44.454Z,28.92
2022-11-27T14:06:29.048Z,31.20
2022-11-27T14:09:05.565Z,24.60
2022-11-27T14:11:41.269Z,24.93
2022-11-27T14:14:23.915Z,33.10
2022-11-27T14:17:00.459Z,27.40
2022-11-27T14:19:33.628Z,23.67
2022-11-27T14:22:13.421Z,24.40
2022-11-27T14:24:44.321Z,31.47
2022-11-27T14:27:26.590Z,27.52
2022-11-27T14:29:53.336Z,25.48
2022-11-27T14:32:20.954Z,24.02
2022-11-27T14:34:48.734Z,23.88
2022-11-27T14:37:26.572Z,20.30
2022-11-27T14:39:54.524Z,21.48
2022-11-27T14:42:29.259Z,19.58
2022-11-27T14:45:10.797Z,20.95
2022-11-27T14:47:46.862Z,20.48
2022-11-27T14:50:14.491Z,23.27
2022-11-27T14:52:43.067Z,20.25
2022-11-27T14:55:17.425Z,18.38
2022-11-27T14:57:47.145Z,20.55
2022-11-27T15:00:18.442Z,19.42
2022-11-27T15:02:48.068Z,17.77
2022-11-27T15:05:25.276Z,22.33
2022-11-27T15:07:55.945Z,18.95
2022-11-27T15:10:27.243Z,20.48
2022-11-27T15:12:54.340Z,18.38
2022-11-27T15:15:29.013Z,21.87
2022-11-27T15:18:01.976Z,18.60
2022-11-27T15:20:44.921Z,18.00
2022-11-27T15:23:18.244Z,23.40
2022-11-27T15:25:48.703Z,30.67
2022-11-27T15:28:37.496Z,27.53
2022-11-27T15:31:25.277Z,26.50
2022-11-27T15:34:18.092Z,29.20
2022-11-27T15:36:51.982Z,24.90
2022-11-27T15:39:35.064Z,23.60
2022-11-27T15:42:03.893Z,26.50
2022-11-27T15:44:32.356Z,29.05
2022-11-27T15:47:01.467Z,33.92
2022-11-27T15:49:28.946Z,35.25
2022-11-27T15:51:56.962Z,35.72
2022-11-27T15:54:25.030Z,32.37
2022-11-27T15:56:51.972Z,27.13
2022-11-27T15:59:20.772Z,33.17
2022-11-27T16:01:49.677Z,33.97
2022-11-27T16:04:17.356Z,34.70
2022-11-27T16:06:45.003Z,38.07
2022-11-27T16:09:11.881Z,39.03
2022-11-27T16:11:38.859Z,34.03
2022-11-27T16:14:05.901Z,36.45
2022-11-27T16:16:32.873Z,31.27
2022-11-27T16:19:01.138Z,32.87
2022-11-27T16:21:30.052Z,27.55
2022-11-27T16:24:02.904Z,24.10
2022-11-27T16:26:30.267Z,25.63
2022-11-27T16:28:57.769Z,32.03
2022-11-27T16:31:25.329Z,36.97
2022-11-27T16:33:52.770Z,33.75
2022-11-27T16:36:22.116Z,33.17
2022-11-27T16:38:51.430Z,38.38
2022-11-27T16:41:19.301Z,37.50
2022-11-27T16:43:49.107Z,37.07
2022-11-27T16:46:21.818Z,37.35
2022-11-27T16:48:50.447Z,36.33
2022-11-27T16:51:23.465Z,41.50
2022-11-27T16:53:53.447Z,42.95
2022-11-27T16:56:23.871Z,40.80
2022-11-27T16:58:54.062Z,40.53
2022-11-27T17:01:26.547Z,34.85
2022-11-27T17:03:53.772Z,39.20
2022-11-27T17:06:25.014Z,41.03
2022-11-27T17:08:54.128Z,40.73
2022-11-27T17:11:24.798Z,39.28
2022-11-27T17:13:57.373Z,43.28
2022-11-27T17:16:24.449Z,40.00
2022-11-27T17:18:52.744Z,29.45
2022-11-27T17:21:26.496Z,35.50
2022-11-27T17:23:59.758Z,31.00
2022-11-27T17:26:28.535Z,25.80
2022-11-27T17:28:56.437Z,30.15
2022-11-27T17:31:26.645Z,33.92
2022-11-27T17:33:56.667Z,28.33
2022-11-27T17:36:25.396Z,30.00
2022-11-27T17:38:53.615Z,34.20
2022-11-27T17:41:21.098Z,43.05
2022-11-27T17:43:48.774Z,36.20
2022-11-27T17:46:20.910Z,38.47
2022-11-27T17:48:50.827Z,34.80
2022-11-27T17:51:19.262Z,35.95
2022-11-27T17:53:47.542Z,30.60
2022-11-27T17:56:17.700Z,25.25
2022-11-27T17:58:44.895Z,24.47
2022-11-27T18:01:22.690Z,21.65
2022-11-27T18:03:51.900Z,19.25
2022-11-27T18:06:19.627Z,26.33
2022-11-27T18:08:47.564Z,32.53
2022-11-27T18:11:18.369Z,37.07
2022-11-27T18:13:46.457Z,46.03
2022-11-27T18:16:16.521Z,40.92
2022-11-27T18:18:44.029Z,45.05
2022-11-27T18:21:18.568Z,44.00
2022-11-27T18:24:21.378Z,49.17
2022-11-27T18:27:00.415Z,44.75
2022-11-27T18:29:22.211Z,42.60
2022-11-27T18:31:50.943Z,38.13
2022-11-27T18:34:18.256Z,47.25
2022-11-27T18:36:45.950Z,40.70
2022-11-27T18:39:13.550Z,49.50
2022-11-27T18:41:40.825Z,45.33
2022-11-27T18:44:10.151Z,52.70
2022-11-27T18:46:38.308Z,50.40
2022-11-27T18:49:06.007Z,54.30
2022-11-27T18:51:33.064Z,49.83
2022-11-27T18:54:00.370Z,39.30
2022-11-27T18:56:30.537Z,49.88
2022-11-27T18:59:05.109Z,41.05
2022-11-27T19:01:41.235Z,43.17
2022-11-27T19:04:11.226Z,40.17
2022-11-27T19:06:38.984Z,44.63
2022-11-27T19:09:06.451Z,42.10
2022-11-27T19:11:34.016Z,46.97
2022-11-27T19:14:01.761Z,45.43
2022-11-27T19:16:32.929Z,48.88
2022-11-27T19:19:03.366Z,49.30
2022-11-27T19:21:32.116Z,50.17
2022-11-27T19:24:01.276Z,48.83
2022-11-27T19:26:34.256Z,39.60
2022-11-27T19:29:05.570Z,42.75
2022-11-27T19:31:33.517Z,37.00
2022-11-27T19:34:03.012Z,47.45
2022-11-27T19:36:32.699Z,46.65
2022-11-27T19:39:04.106Z,37.73
2022-11-27T19:41:31.323Z,42.35
2022-11-27T19:44:03.546Z,32.75
2022-11-27T19:46:33.426Z,43.38
2022-11-27T19:49:16.536Z,44.42
2022-11-27T19:51:44.261Z,33.70
2022-11-27T19:54:13.472Z,41.78
2022-11-27T19:56:42.474Z,37.63
2022-11-27T19:59:12.346Z,35.28
2022-11-27T20:01:41.051Z,26.27
2022-11-27T20:04:12.617Z,31.07
2022-11-27T20:06:41.041Z,29.60
2022-11-27T20:09:08.156Z,32.20
2022-11-27T20:11:37.972Z,25.42
2022-11-27T20:14:06.158Z,23.08
2022-11-27T20:16:35.685Z,28.43
2022-11-27T20:19:05.954Z,39.47
2022-11-27T20:21:34.590Z,37.28
2022-11-27T20:24:03.991Z,41.85
2022-11-27T20:26:31.151Z,47.88
2022-11-27T20:28:59.827Z,29.70
2022-11-27T20:31:35.059Z,34.58
2022-11-27T20:34:04.161Z,29.63
2022-11-27T20:36:34.069Z,33.97
2022-11-27T20:39:01.850Z,30.77
2022-11-27T20:41:29.559Z,20.33
2022-11-27T20:44:01.849Z,18.60
2022-11-27T20:46:30.954Z,18.17
2022-11-27T20:48:58.966Z,16.52
2022-11-27T20:51:31.284Z,21.88
2022-11-27T20:54:00.165Z,24.50
2022-11-27T20:56:28.616Z,31.30
2022-11-27T20:58:56.211Z,25.60
2022-11-27T21:01:29.980Z,36.42
2022-11-27T21:03:59.127Z,41.90
2022-11-27T21:06:28.761Z,36.53
2022-11-27T21:08:56.121Z,38.25
2022-11-27T21:11:26.022Z,42.22
2022-11-27T21:14:01.602Z,40.53
2022-11-27T21:16:31.330Z,41.30
2022-11-27T21:19:02.943Z,35.00
2022-11-27T21:21:29.997Z,40.00
2022-11-27T21:23:58.285Z,38.05
2022-11-27T21:26:25.910Z,36.40
2022-11-27T21:28:52.950Z,28.45
2022-11-27T21:31:22.678Z,27.07
2022-11-27T21:33:51.814Z,27.00
2022-11-27T21:36:20.340Z,26.75
2022-11-27T21:38:47.661Z,25.73
2022-11-27T21:41:17.049Z,27.80
2022-11-27T21:43:45.336Z,35.07
2022-11-27T21:46:18.070Z,32.63
2022-11-27T21:48:46.407Z,30.15
2022-11-27T21:51:15.201Z,26.58
2022-11-27T21:53:43.985Z,24.25
2022-11-27T21:56:13.448Z,37.87
2022-11-27T21:58:40.809Z,26.33
2022-11-27T22:01:11.005Z,21.63
2022-11-27T22:03:42.493Z,22.40
2022-11-27T22:06:15.164Z,20.67
2022-11-27T22:08:43.746Z,21.60
2022-11-27T22:11:14.641Z,21.77
2022-11-27T22:13:42.369Z,24.13
2022-11-27T22:16:17.963Z,33.95
2022-11-27T22:18:45.821Z,32.67
2022-11-27T22:21:13.804Z,34.27
2022-11-27T22:23:43.061Z,32.05
2022-11-27T22:26:12.230Z,28.90
2022-11-27T22:28:40.243Z,26.13
2022-11-27T22:31:13.636Z,26.05
2022-11-27T22:33:41.690Z,28.37
2022-11-27T22:36:14.149Z,30.10
2022-11-27T22:38:41.878Z,33.05
2022-11-27T22:41:09.740Z,26.95
2022-11-27T22:43:38.222Z,29.77
2022-11-27T22:46:10.592Z,21.57
2022-11-27T22:48:38.464Z,24.63
2022-11-27T22:51:05.544Z,32.42
2022-11-27T22:53:32.624Z,21.15
2022-11-27T22:56:05.514Z,20.58
2022-11-27T22:58:35.212Z,18.77
2022-11-27T23:01:06.243Z,19.42
2022-11-27T23:03:33.728Z,21.55
2022-11-27T23:06:00.985Z,29.27
2022-11-27T23:08:27.924Z,26.52
2022-11-27T23:10:54.646Z,20.07
2022-11-27T23:13:21.547Z,24.70
2022-11-27T23:15:48.173Z,27.10
2022-11-27T23:18:15.341Z,28.67
2022-11-27T23:20:43.223Z,26.52
2022-11-27T23:23:10.774Z,20.93
2022-11-27T23:25:38.019Z,18.63
2022-11-27T23:28:05.297Z,20.38
2022-11-27T23:30:34.077Z,24.10
2022-11-27T23:33:01.411Z,22.52
2022-11-27T23:35:28.183Z,25.23
2022-11-27T23:37:55.143Z,21.80
2022-11-27T23:40:22.083Z,23.33
2022-11-27T23:42:48.992Z,19.75
2022-11-27T23:45:15.920Z,20.02
2022-11-27T23:47:42.858Z,20.80
2022-11-27T23:50:09.824Z,24.15
2022-11-27T23:52:36.797Z,24.73
2022-11-27T23:55:03.515Z,23.88
2022-11-27T23:57:30.556Z,27.00
2022-11-27T23:59:57.335Z,22.10
